createdAt,value
2023-01-21T00:01:54.820Z,11.40
2023-01-21T00:04:28.472Z,12.20
2023-01-21T00:09:28.530Z,11.50
2023-01-21T00:11:27.702Z,11.50
2023-01-21T00:14:28.680Z,10.70
2023-01-21T00:19:28.845Z,10.90
2023-01-21T00:19:52.738Z,10.90
2023-01-21T00:24:28.367Z,11.40
2023-01-21T00:29:28.571Z,11.50
2023-01-21T00:34:28.603Z,10.50
2023-01-21T00:39:28.422Z,11.30
2023-01-21T00:44:28.444Z,9.40
2023-01-21T00:49:28.679Z,9.50
2023-01-21T00:54:30.317Z,8.30
2023-01-21T00:59:29.216Z,10.30
2023-01-21T01:04:04.919Z,11.00
2023-01-21T01:04:28.383Z,11.00
2023-01-21T01:09:28.556Z,8.40
2023-01-21T01:14:29.292Z,8.90
2023-01-21T01:19:28.547Z,6.80
2023-01-21T01:22:56.681Z,6.10
2023-01-21T01:24:28.416Z,6.10
2023-01-21T01:28:52.324Z,6.30
2023-01-21T01:29:28.540Z,6.30
2023-01-21T01:34:04.199Z,6.80
2023-01-21T01:34:28.325Z,6.80
2023-01-21T01:35:14.904Z,6.80
2023-01-21T01:38:55.769Z,6.30
2023-01-21T01:39:28.631Z,6.30
2023-01-21T01:42:18.454Z,6.30
2023-01-21T01:44:48.251Z,7.00
2023-01-21T01:49:28.631Z,6.90
2023-01-21T01:54:32.258Z,5.90
2023-01-21T01:59:31.561Z,5.90
2023-01-21T02:04:35.545Z,6.00
2023-01-21T02:09:28.912Z,5.90
2023-01-21T02:14:30.798Z,5.60
2023-01-21T02:19:48.100Z,5.50
2023-01-21T02:24:48.164Z,6.10
2023-01-21T02:29:50.137Z,5.70
2023-01-21T02:34:22.031Z,5.90
2023-01-21T02:34:35.348Z,5.90
2023-01-21T02:39:41.699Z,5.40
2023-01-21T02:44:34.378Z,5.90
2023-01-21T02:45:50.508Z,5.90
2023-01-21T02:49:32.287Z,4.80
2023-01-21T02:49:44.429Z,4.80
2023-01-21T02:53:50.798Z,4.70
2023-01-21T02:54:47.942Z,4.70
2023-01-21T02:59:28.618Z,5.50
2023-01-21T03:04:42.599Z,5.10
2023-01-21T03:09:30.616Z,5.40
2023-01-21T03:14:44.304Z,5.60
2023-01-21T03:16:01.597Z,5.60
2023-01-21T03:19:36.442Z,4.60
2023-01-21T03:24:28.479Z,5.10
2023-01-21T03:29:31.193Z,5.10
2023-01-21T03:34:29.264Z,4.50
2023-01-21T03:34:34.605Z,4.50
2023-01-21T03:39:33.833Z,4.40
2023-01-21T03:44:28.499Z,4.30
2023-01-21T03:48:49.237Z,4.50
2023-01-21T03:49:32.700Z,4.50
2023-01-21T03:51:47.834Z,4.00
2023-01-21T03:54:28.265Z,4.00
2023-01-21T03:59:28.520Z,3.40
2023-01-21T04:01:50.784Z,3.50
2023-01-21T04:04:28.147Z,3.50
2023-01-21T04:09:28.254Z,3.60
2023-01-21T04:14:28.928Z,3.30
2023-01-21T04:19:28.190Z,3.40
2023-01-21T04:24:19.636Z,3.40
2023-01-21T04:24:28.050Z,3.40
2023-01-21T04:29:28.435Z,2.80
2023-01-21T04:34:28.136Z,2.50
2023-01-21T04:36:04.539Z,2.50
2023-01-21T04:39:28.143Z,2.50
2023-01-21T04:40:06.112Z,2.50
2023-01-21T04:44:15.269Z,2.10
2023-01-21T04:44:28.294Z,2.10
2023-01-21T04:48:48.508Z,2.10
2023-01-21T04:49:28.101Z,2.10
2023-01-21T04:54:28.530Z,2.10
2023-01-21T04:59:28.135Z,1.70
2023-01-21T05:00:18.975Z,1.70
2023-01-21T05:04:28.509Z,1.60
2023-01-21T05:06:32.770Z,1.70
2023-01-21T05:09:28.145Z,1.70
2023-01-21T05:10:48.546Z,1.70
2023-01-21T05:14:28.196Z,1.70
2023-01-21T05:19:28.363Z,1.40
2023-01-21T05:24:28.185Z,1.60
2023-01-21T05:27:29.634Z,1.50
2023-01-21T05:29:28.246Z,1.50
2023-01-21T05:34:28.470Z,1.30
2023-01-21T05:39:28.112Z,1.60
2023-01-21T05:44:28.201Z,1.30
2023-01-21T05:48:05.846Z,1.20
2023-01-21T05:49:28.061Z,1.20
2023-01-21T05:50:08.722Z,1.20
2023-01-21T05:54:28.190Z,1.20
2023-01-21T05:59:28.270Z,1.30
2023-01-21T06:04:19.605Z,1.10
2023-01-21T06:04:29.530Z,1.10
2023-01-21T06:09:13.938Z,1.30
2023-01-21T06:09:28.055Z,1.30
2023-01-21T06:14:28.308Z,1.20
2023-01-21T06:15:25.959Z,1.50
2023-01-21T06:16:41.385Z,1.50
2023-01-21T06:19:02.539Z,1.50
2023-01-21T06:19:28.165Z,1.50
2023-01-21T06:22:18.058Z,1.20
2023-01-21T06:24:28.158Z,1.20
2023-01-21T06:28:28.435Z,1.40
2023-01-21T06:29:28.177Z,1.40
2023-01-21T06:29:38.443Z,1.40
2023-01-21T06:31:47.108Z,1.50
2023-01-21T06:34:28.125Z,1.50
2023-01-21T06:39:04.431Z,1.70
2023-01-21T06:39:28.043Z,1.70
2023-01-21T06:44:12.601Z,1.70
2023-01-21T06:44:27.989Z,1.70
2023-01-21T06:49:28.422Z,1.90
2023-01-21T06:50:49.702Z,1.30
2023-01-21T06:52:03.871Z,1.30
2023-01-21T06:54:30.332Z,1.30
2023-01-21T06:56:43.395Z,2.00
2023-01-21T06:59:28.167Z,2.00
2023-01-21T07:04:28.623Z,1.50
2023-01-21T07:09:27.975Z,1.80
2023-01-21T07:11:48.867Z,1.70
2023-01-21T07:14:27.977Z,1.70
2023-01-21T07:18:46.771Z,2.20
2023-01-21T07:19:28.098Z,2.20
2023-01-21T07:24:28.206Z,1.80
2023-01-21T07:29:28.486Z,1.50
2023-01-21T07:32:05.540Z,1.50
2023-01-21T07:34:28.121Z,1.70
2023-01-21T07:36:23.771Z,1.70
2023-01-21T07:39:28.052Z,1.20
2023-01-21T07:40:39.700Z,1.20
2023-01-21T07:44:28.182Z,1.80
2023-01-21T07:49:28.048Z,1.40
2023-01-21T07:53:05.612Z,1.40
2023-01-21T07:54:27.995Z,1.60
2023-01-21T07:59:28.063Z,2.00
2023-01-21T07:59:31.090Z,2.00
2023-01-21T08:00:44.345Z,2.00
2023-01-21T08:04:28.116Z,2.10
2023-01-21T08:09:25.380Z,2.30
2023-01-21T08:09:27.736Z,2.30
2023-01-21T08:14:27.985Z,2.50
2023-01-21T08:16:21.658Z,2.50
2023-01-21T08:19:27.912Z,2.60
2023-01-21T08:23:00.709Z,2.60
2023-01-21T08:23:54.579Z,2.60
2023-01-21T08:24:27.926Z,5.20
2023-01-21T08:29:28.697Z,4.50
2023-01-21T08:34:28.039Z,2.70
2023-01-21T08:36:31.962Z,2.70
2023-01-21T08:39:27.901Z,3.10
2023-01-21T08:43:13.285Z,3.10
2023-01-21T08:44:27.917Z,2.50
2023-01-21T08:49:28.097Z,2.80
2023-01-21T08:52:02.070Z,2.80
2023-01-21T08:54:28.202Z,2.30
2023-01-21T08:57:17.548Z,2.30
2023-01-21T08:58:54.016Z,2.50
2023-01-21T08:59:29.152Z,2.50
2023-01-21T09:04:28.020Z,3.30
2023-01-21T09:07:23.846Z,3.30
2023-01-21T09:09:28.003Z,4.30
2023-01-21T09:13:29.367Z,4.30
2023-01-21T09:14:28.126Z,4.10
2023-01-21T09:17:52.294Z,4.10
2023-01-21T09:19:27.960Z,4.40
2023-01-21T09:19:33.428Z,4.40
2023-01-21T09:21:29.645Z,4.40
2023-01-21T09:24:28.107Z,3.80
2023-01-21T09:29:28.122Z,3.80
2023-01-21T09:34:28.210Z,4.90
2023-01-21T09:39:27.890Z,3.70
2023-01-21T09:44:31.914Z,3.30
2023-01-21T09:49:31.669Z,3.50
2023-01-21T09:53:22.987Z,3.50
2023-01-21T09:54:30.513Z,3.50
2023-01-21T09:58:30.797Z,4.70
2023-01-21T09:59:41.886Z,4.70
2023-01-21T10:04:35.392Z,4.70
2023-01-21T10:08:30.467Z,4.60
2023-01-21T10:09:39.945Z,4.60
2023-01-21T10:10:39.888Z,4.60
2023-01-21T10:14:45.568Z,5.30
2023-01-21T10:18:46.165Z,5.60
2023-01-21T10:19:35.631Z,5.60
2023-01-21T10:24:32.188Z,6.20
2023-01-21T10:24:59.260Z,6.20
2023-01-21T10:29:28.157Z,7.00
2023-01-21T10:34:30.231Z,7.90
2023-01-21T10:35:16.010Z,7.90
2023-01-21T10:39:38.315Z,8.50
2023-01-21T10:44:37.060Z,8.80
2023-01-21T10:47:49.994Z,8.80
2023-01-21T10:49:30.870Z,8.80
2023-01-21T10:49:43.608Z,8.80
2023-01-21T10:54:38.135Z,9.30
2023-01-21T10:59:33.198Z,16.60
2023-01-21T11:04:28.249Z,10.60
2023-01-21T11:09:31.233Z,17.40
2023-01-21T11:14:28.332Z,18.10
2023-01-21T11:17:28.979Z,18.10
2023-01-21T11:19:30.101Z,11.80
2023-01-21T11:24:28.847Z,12.80
2023-01-21T11:29:38.872Z,13.40
2023-01-21T11:34:28.665Z,12.90
2023-01-21T11:39:30.334Z,14.10
2023-01-21T11:41:17.624Z,14.10
2023-01-21T11:44:27.964Z,13.00
2023-01-21T11:49:30.849Z,13.00
2023-01-21T11:54:27.832Z,13.20
2023-01-21T11:56:02.465Z,13.20
2023-01-21T11:58:21.799Z,11.90
2023-01-21T11:59:34.214Z,11.90
2023-01-21T12:00:06.636Z,11.90
2023-01-21T12:04:27.968Z,12.70
2023-01-21T12:09:28.518Z,12.90
2023-01-21T12:11:19.403Z,12.90
2023-01-21T12:14:34.560Z,13.30
2023-01-21T12:19:44.691Z,12.70
2023-01-21T12:24:42.387Z,12.40
2023-01-21T12:29:43.829Z,12.60
2023-01-21T12:34:32.682Z,13.50
2023-01-21T12:39:36.519Z,13.20
2023-01-21T12:44:34.265Z,13.80
2023-01-21T12:49:42.700Z,13.70
2023-01-21T12:54:35.715Z,13.60
2023-01-21T12:59:32.979Z,13.70
2023-01-21T12:59:41.181Z,13.70
2023-01-21T12:59:48.331Z,13.70
2023-01-21T13:04:39.281Z,15.00
2023-01-21T13:09:35.241Z,14.30
2023-01-21T13:10:01.938Z,14.30
2023-01-21T13:14:34.169Z,15.30
2023-01-21T13:19:27.726Z,16.10
2023-01-21T13:24:44.865Z,15.20
2023-01-21T13:29:37.015Z,17.90
2023-01-21T13:30:48.518Z,17.90
2023-01-21T13:33:30.874Z,15.60
2023-01-21T13:34:37.952Z,15.60
2023-01-21T13:39:36.483Z,17.10
2023-01-21T13:40:13.210Z,17.10
2023-01-21T13:44:44.490Z,17.40
2023-01-21T13:49:44.001Z,16.90
2023-01-21T13:54:40.656Z,18.40
2023-01-21T13:59:33.382Z,17.70
2023-01-21T14:04:35.012Z,21.60
2023-01-21T14:07:40.472Z,44.00
2023-01-21T14:09:37.129Z,44.00
2023-01-21T14:14:47.624Z,23.40
2023-01-21T14:19:47.527Z,23.10
2023-01-21T14:21:32.925Z,28.40
2023-01-21T14:24:44.742Z,28.40
2023-01-21T14:28:17.296Z,26.00
2023-01-21T14:29:33.844Z,26.00
2023-01-21T14:34:33.926Z,21.50
2023-01-21T14:39:37.011Z,31.00
2023-01-21T14:44:38.022Z,27.80
2023-01-21T14:46:00.487Z,20.80
2023-01-21T14:49:38.357Z,20.80
2023-01-21T14:51:10.165Z,21.80
2023-01-21T14:54:27.679Z,21.80
2023-01-21T14:59:33.676Z,31.70
2023-01-21T15:04:30.985Z,22.40
2023-01-21T15:09:30.495Z,21.70
2023-01-21T15:09:50.623Z,21.70
2023-01-21T15:13:32.966Z,25.50
2023-01-21T15:14:30.450Z,25.50
2023-01-21T15:19:29.799Z,21.90
2023-01-21T15:24:30.628Z,29.90
2023-01-21T15:29:32.737Z,23.90
2023-01-21T15:34:29.394Z,25.30
2023-01-21T15:39:32.936Z,32.30
2023-01-21T15:44:40.385Z,26.70
2023-01-21T15:49:41.679Z,26.60
2023-01-21T15:54:36.209Z,30.60
2023-01-21T15:59:45.343Z,27.90
2023-01-21T16:04:34.629Z,25.90
2023-01-21T16:07:58.634Z,28.40
2023-01-21T16:09:36.981Z,28.40
2023-01-21T16:14:42.083Z,27.10
2023-01-21T16:19:32.352Z,26.90
2023-01-21T16:24:31.479Z,26.90
2023-01-21T16:29:27.630Z,26.40
2023-01-21T16:34:40.276Z,26.10
2023-01-21T16:39:27.506Z,25.40
2023-01-21T16:44:28.529Z,25.20
2023-01-21T16:49:28.161Z,26.00
2023-01-21T16:54:28.994Z,25.70
2023-01-21T16:59:35.922Z,26.40
2023-01-21T17:04:28.623Z,25.20
2023-01-21T17:09:31.724Z,28.70
2023-01-21T17:14:29.881Z,27.50
2023-01-21T17:19:32.796Z,29.10
2023-01-21T17:24:31.748Z,29.50
2023-01-21T17:29:29.408Z,28.20
2023-01-21T17:29:48.341Z,28.20
2023-01-21T17:34:15.027Z,28.20
2023-01-21T17:34:29.353Z,28.20
2023-01-21T17:39:47.427Z,27.80
2023-01-21T17:44:28.109Z,27.80
2023-01-21T17:49:27.717Z,28.10
2023-01-21T17:54:28.487Z,29.40
2023-01-21T17:59:33.559Z,29.60
2023-01-21T18:04:27.638Z,29.80
2023-01-21T18:09:27.636Z,28.30
2023-01-21T18:10:59.849Z,28.30
2023-01-21T18:14:27.861Z,27.80
2023-01-21T18:17:16.042Z,27.80
2023-01-21T18:19:31.211Z,28.90
2023-01-21T18:24:27.854Z,30.70
2023-01-21T18:29:29.473Z,31.00
2023-01-21T18:34:28.264Z,32.50
2023-01-21T18:39:27.847Z,34.10
2023-01-21T18:42:24.668Z,34.10
2023-01-21T18:44:27.500Z,35.60
2023-01-21T18:49:28.445Z,38.90
2023-01-21T18:54:27.555Z,46.20
2023-01-21T18:59:27.807Z,44.70
2023-01-21T19:04:27.465Z,43.60
2023-01-21T19:08:47.720Z,43.60
2023-01-21T19:09:27.434Z,40.20
2023-01-21T19:14:27.395Z,40.40
2023-01-21T19:19:27.631Z,39.40
2023-01-21T19:19:35.779Z,39.40
2023-01-21T19:22:01.777Z,39.40
2023-01-21T19:24:27.389Z,36.10
2023-01-21T19:29:27.598Z,35.30
2023-01-21T19:34:27.618Z,38.60
2023-01-21T19:39:31.770Z,35.50
2023-01-21T19:44:27.341Z,39.60
2023-01-21T19:49:27.863Z,35.50
2023-01-21T19:54:27.424Z,36.50
2023-01-21T19:59:27.481Z,35.40
2023-01-21T19:59:51.955Z,35.40
2023-01-21T20:04:27.362Z,36.70
2023-01-21T20:09:27.563Z,36.40
2023-01-21T20:09:38.891Z,36.40
2023-01-21T20:14:27.346Z,34.40
2023-01-21T20:18:29.847Z,35.50
2023-01-21T20:19:27.493Z,35.50
2023-01-21T20:21:06.157Z,35.50
2023-01-21T20:24:29.124Z,36.00
2023-01-21T20:29:27.494Z,33.00
2023-01-21T20:34:30.500Z,33.40
2023-01-21T20:39:27.357Z,36.30
2023-01-21T20:44:27.476Z,47.30
2023-01-21T20:48:42.685Z,67.20
2023-01-21T20:49:27.280Z,67.20
2023-01-21T20:53:19.978Z,58.10
2023-01-21T20:54:27.416Z,58.10
2023-01-21T20:58:40.934Z,40.70
2023-01-21T20:59:27.373Z,40.70
2023-01-21T21:04:29.179Z,36.40
2023-01-21T21:08:20.919Z,37.80
2023-01-21T21:09:27.778Z,37.80
2023-01-21T21:14:33.248Z,59.20
2023-01-21T21:19:28.754Z,55.70
2023-01-21T21:21:34.824Z,55.70
2023-01-21T21:24:28.945Z,47.30
2023-01-21T21:29:27.503Z,42.50
2023-01-21T21:34:27.275Z,47.20
2023-01-21T21:39:27.432Z,36.10
2023-01-21T21:42:59.979Z,36.40
2023-01-21T21:44:27.255Z,36.40
2023-01-21T21:48:53.036Z,36.90
2023-01-21T21:49:28.366Z,36.90
2023-01-21T21:54:27.582Z,34.60
2023-01-21T21:59:27.413Z,35.60
2023-01-21T22:04:27.290Z,36.60
2023-01-21T22:09:27.646Z,41.60
2023-01-21T22:12:25.730Z,42.20
2023-01-21T22:14:27.295Z,42.20
2023-01-21T22:16:59.749Z,42.20
2023-01-21T22:19:27.263Z,38.30
2023-01-21T22:24:27.503Z,36.20
2023-01-21T22:29:28.599Z,37.40
2023-01-21T22:34:27.574Z,36.60
2023-01-21T22:38:05.407Z,36.90
2023-01-21T22:39:27.284Z,36.90
2023-01-21T22:44:27.542Z,36.60
2023-01-21T22:49:27.599Z,38.20
2023-01-21T22:54:27.332Z,42.30
2023-01-21T22:59:27.303Z,43.80
2023-01-21T23:04:27.618Z,40.60
2023-01-21T23:05:13.926Z,40.60
2023-01-21T23:09:27.273Z,44.20
2023-01-21T23:10:18.079Z,44.20
2023-01-21T23:14:27.177Z,39.90
2023-01-21T23:19:27.546Z,37.80
2023-01-21T23:24:27.237Z,35.10
2023-01-21T23:29:27.283Z,36.10
2023-01-21T23:34:27.794Z,34.80
2023-01-21T23:39:27.285Z,35.80
2023-01-21T23:44:27.360Z,33.50
2023-01-21T23:48:53.981Z,33.90
2023-01-21T23:49:27.140Z,33.90
2023-01-21T23:54:27.384Z,34.00
2023-01-21T23:58:55.920Z,35.10
2023-01-21T23:59:27.132Z,35.10
